Time;durP1;ratioP1;P1;durP2;ratioP2;P2;SDS_P1;SDS_P2;PMS_P1;PMS_P2;Temp;Humidity;BMP_temperature;BMP_pressure;BME280_temperature;BME280_humidity;BME280_pressure;Samples;Min_cycle;Max_cycle;Signal;HPM_P1;HPM_P2
2022/01/02 00:01:13;;;;;;;;;;;12.50;99.90;;;;;;5068217;27;20065;-72
2022/01/02 00:03:42;;;;;;;;;;;12.60;99.90;;;;;;5067235;27;20074;-72
2022/01/02 00:06:09;;;;;;;;;;;12.70;99.90;;;;;;5067578;27;20058;-72
2022/01/02 00:08:41;;;;;;;;;;;12.70;99.90;;;;;;5066884;27;21167;-70
2022/01/02 00:11:10;;;;;;;;;;;12.70;99.90;;;;;;5067597;27;20050;-69
2022/01/02 00:13:42;;;;;;;;;;;12.70;99.90;;;;;;5066593;27;20073;-69
2022/01/02 00:16:11;;;;;;;;;;;12.80;99.90;;;;;;5067712;27;20115;-69
2022/01/02 00:18:47;;;;;;;;;;;12.80;99.90;;;;;;5083957;27;20051;-69
2022/01/02 00:21:14;;;;;;;;;;;12.80;99.90;;;;;;5066684;27;21064;-70
2022/01/02 00:23:51;;;;;;;;;;;12.80;99.90;;;;;;5066442;27;20159;-69
2022/01/02 00:26:19;;;;;;;;;;;12.90;99.90;;;;;;5067935;27;21088;-70
2022/01/02 00:28:47;;;;;;;;;;;12.80;99.90;;;;;;5066298;27;20256;-70
2022/01/02 00:31:15;;;;;;;;;;;12.80;99.90;;;;;;5067742;27;20065;-69
2022/01/02 00:33:43;;;;;;;;;;;12.90;99.90;;;;;;5066056;27;20159;-70
2022/01/02 00:36:10;;;;;;;;;;;12.90;99.90;;;;;;5066631;27;20180;-70
2022/01/02 00:38:38;;;;;;;;;;;12.90;99.90;;;;;;5066959;27;20184;-70
2022/01/02 00:41:05;;;;;;;;;;;13.00;99.90;;;;;;5067155;27;20090;-70
2022/01/02 00:43:36;;;;;;;;;;;13.00;99.90;;;;;;5066051;27;20056;-69
2022/01/02 00:46:05;;;;;;;;;;;13.00;99.90;;;;;;5081628;27;20166;-70
2022/01/02 00:48:35;;;;;;;;;;;13.00;99.90;;;;;;5088873;27;20138;-69
2022/01/02 00:51:04;;;;;;;;;;;13.00;99.90;;;;;;5089332;27;21132;-69
2022/01/02 00:53:34;;;;;;;;;;;13.00;99.90;;;;;;5088726;27;20059;-69
2022/01/02 00:56:02;;;;;;;;;;;13.00;99.90;;;;;;5089163;27;20094;-68
2022/01/02 00:58:31;;;;;;;;;;;13.00;99.90;;;;;;5087916;27;21143;-70
2022/01/02 01:01:00;;;;;;;;;;;13.00;99.90;;;;;;5088940;27;20074;-70
2022/01/02 01:03:30;;;;;;;;;;;13.00;99.90;;;;;;5088289;27;20146;-70
2022/01/02 01:06:02;;;;;;;;;;;13.00;99.90;;;;;;5089002;27;20085;-70
2022/01/02 01:08:31;;;;;;;;;;;13.00;99.90;;;;;;5088192;27;21335;-70
2022/01/02 01:10:59;;;;;;;;;;;13.00;99.90;;;;;;5088676;27;20138;-70
2022/01/02 01:13:27;;;;;;;;;;;13.00;99.90;;;;;;5088491;27;20049;-70
2022/01/02 01:15:54;;;;;;;;;;;13.10;99.90;;;;;;5088961;27;21165;-71
2022/01/02 01:18:22;;;;;;;;;;;13.20;99.90;;;;;;5087948;27;20150;-70
2022/01/02 01:20:51;;;;;;;;;;;13.20;99.90;;;;;;5089053;27;20398;-71
2022/01/02 01:23:20;;;;;;;;;;;13.20;99.90;;;;;;5088598;27;20065;-71
2022/01/02 01:25:49;;;;;;;;;;;13.10;99.90;;;;;;5088496;27;21043;-71
2022/01/02 01:28:17;;;;;;;;;;;13.20;99.90;;;;;;5087204;27;20167;-71
2022/01/02 01:30:44;;;;;;;;;;;13.30;99.90;;;;;;5088464;27;20065;-71
2022/01/02 01:33:12;;;;;;;;;;;13.30;99.90;;;;;;5087686;27;20102;-71
2022/01/02 01:35:40;;;;;;;;;;;13.30;99.90;;;;;;5088317;27;20067;-71
2022/01/02 01:38:07;;;;;;;;;;;13.30;99.90;;;;;;5087872;27;20055;-71
2022/01/02 01:40:39;;;;;;;;;;;13.30;99.90;;;;;;5089004;27;21142;-71
2022/01/02 01:43:09;;;;;;;;;;;13.20;99.90;;;;;;5088347;27;20056;-72
2022/01/02 01:45:40;;;;;;;;;;;13.20;99.90;;;;;;5088671;27;20071;-71
2022/01/02 01:48:08;;;;;;;;;;;13.20;99.90;;;;;;5088366;27;21134;-72
2022/01/02 01:50:38;;;;;;;;;;;13.20;99.90;;;;;;5088801;27;21162;-71
2022/01/02 01:53:06;;;;;;;;;;;13.20;99.90;;;;;;5088257;27;20072;-71
2022/01/02 01:55:37;;;;;;;;;;;13.10;99.90;;;;;;5089064;27;20063;-71
2022/01/02 01:58:05;;;;;;;;;;;13.00;99.90;;;;;;5087690;27;20064;-71
2022/01/02 02:00:36;;;;;;;;;;;13.00;99.90;;;;;;5087801;27;20252;-72
2022/01/02 02:03:08;;;;;;;;;;;13.10;99.90;;;;;;5085776;27;20057;-72
2022/01/02 02:05:36;;;;;;;;;;;13.10;99.90;;;;;;5086242;27;20098;-72
2022/01/02 02:08:03;;;;;;;;;;;13.00;99.90;;;;;;5084015;27;20057;-72
2022/01/02 02:10:35;;;;;;;;;;;13.00;99.90;;;;;;5086683;27;20073;-72
2022/01/02 02:13:06;;;;;;;;;;;13.00;99.90;;;;;;5085595;27;20072;-71
2022/01/02 02:15:39;;;;;;;;;;;13.00;99.90;;;;;;5085881;27;20073;-71
2022/01/02 02:18:06;;;;;;;;;;;13.00;99.90;;;;;;5083745;27;20187;-72
2022/01/02 02:20:36;;;;;;;;;;;12.90;99.90;;;;;;5086017;27;21121;-72
2022/01/02 02:23:13;;;;;;;;;;;12.90;99.90;;;;;;5085514;27;20050;-71
2022/01/02 02:25:40;;;;;;;;;;;12.90;99.90;;;;;;5085534;27;21141;-73
2022/01/02 02:28:08;;;;;;;;;;;12.90;99.90;;;;;;5084857;27;20050;-72
2022/01/02 02:30:36;;;;;;;;;;;12.80;99.90;;;;;;5081565;27;20090;-72
2022/01/02 02:33:05;;;;;;;;;;;12.80;99.90;;;;;;5072934;28;20083;-73
2022/01/02 02:35:33;;;;;;;;;;;12.80;99.90;;;;;;5066004;28;20052;-72
2022/01/02 02:38:02;;;;;;;;;;;12.70;99.90;;;;;;5068526;27;20058;-71
2022/01/02 02:40:30;;;;;;;;;;;12.70;99.90;;;;;;5069214;27;20049;-72
2022/01/02 02:43:02;;;;;;;;;;;12.70;99.90;;;;;;5069095;27;20066;-71
2022/01/02 02:51:20;;;;;;;;;;;12.60;99.90;;;;;;5066735;27;20038;-72
2022/01/02 02:53:49;;;;;;;;;;;12.50;99.90;;;;;;5068678;27;20275;-73
2022/01/02 02:56:20;;;;;;;;;;;12.40;99.90;;;;;;5068916;27;20050;-72
2022/01/02 02:58:49;;;;;;;;;;;12.40;99.90;;;;;;5067708;27;20049;-72
2022/01/02 03:01:19;;;;;;;;;;;12.40;99.90;;;;;;5069313;27;20050;-72
2022/01/02 03:03:47;;;;;;;;;;;12.40;99.90;;;;;;5068719;27;20199;-71
2022/01/02 03:06:15;;;;;;;;;;;12.50;99.90;;;;;;5068726;27;20147;-72
2022/01/02 03:08:42;;;;;;;;;;;12.60;99.90;;;;;;5068261;27;20076;-72
2022/01/02 03:11:15;;;;;;;;;;;12.60;99.90;;;;;;5068540;27;20154;-72
2022/01/02 03:13:43;;;;;;;;;;;12.60;99.90;;;;;;5068595;27;20075;-72
2022/01/02 03:16:10;;;;;;;;;;;12.60;99.90;;;;;;5068923;27;20131;-72
2022/01/02 03:18:37;;;;;;;;;;;12.60;99.90;;;;;;5068671;27;20271;-72
2022/01/02 03:21:05;;;;;;;;;;;12.60;99.90;;;;;;5068743;27;20325;-72
2022/01/02 03:23:32;;;;;;;;;;;12.60;99.90;;;;;;5068365;27;20051;-72
2022/01/02 03:25:59;;;;;;;;;;;12.60;99.90;;;;;;5068162;27;20050;-72
2022/01/02 03:28:28;;;;;;;;;;;12.60;99.90;;;;;;5068007;27;20078;-71
2022/01/02 03:30:55;;;;;;;;;;;12.50;99.90;;;;;;5068570;27;21288;-72
2022/01/02 03:33:22;;;;;;;;;;;12.50;99.90;;;;;;5067532;27;20088;-72
2022/01/02 03:35:50;;;;;;;;;;;12.50;99.90;;;;;;5068326;27;20203;-72
2022/01/02 03:38:17;;;;;;;;;;;12.50;99.90;;;;;;5067956;27;20079;-71
2022/01/02 03:40:44;;;;;;;;;;;12.50;99.90;;;;;;5068105;27;20072;-71
2022/01/02 03:43:12;;;;;;;;;;;12.50;99.90;;;;;;5067677;27;20050;-72
2022/01/02 03:45:41;;;;;;;;;;;12.40;99.90;;;;;;5068119;27;20057;-72
2022/01/02 03:48:08;;;;;;;;;;;12.40;99.90;;;;;;5066966;27;21213;-72
2022/01/02 03:50:36;;;;;;;;;;;12.30;99.90;;;;;;5068390;27;20085;-72
2022/01/02 03:53:03;;;;;;;;;;;12.30;99.90;;;;;;5067118;27;20138;-72
2022/01/02 03:55:30;;;;;;;;;;;12.20;99.90;;;;;;5067899;27;20050;-73
2022/01/02 03:57:57;;;;;;;;;;;12.20;99.90;;;;;;5067606;27;20059;-72
2022/01/02 04:00:25;;;;;;;;;;;12.20;99.90;;;;;;5068413;27;20147;-71
2022/01/02 04:02:54;;;;;;;;;;;12.20;99.90;;;;;;5067160;27;20270;-72
2022/01/02 04:05:21;;;;;;;;;;;12.30;99.90;;;;;;5067724;27;20175;-72
2022/01/02 04:07:50;;;;;;;;;;;12.40;99.90;;;;;;5067191;27;20074;-71
2022/01/02 04:10:19;;;;;;;;;;;12.40;99.90;;;;;;5067892;27;20058;-72
2022/01/02 04:12:46;;;;;;;;;;;12.40;99.90;;;;;;5067138;27;20236;-72
2022/01/02 04:15:14;;;;;;;;;;;12.50;99.90;;;;;;5067653;27;20177;-72
2022/01/02 04:17:42;;;;;;;;;;;12.50;99.90;;;;;;5067107;27;20074;-71
2022/01/02 04:20:14;;;;;;;;;;;12.50;99.90;;;;;;5066780;27;20251;-72
2022/01/02 04:22:42;;;;;;;;;;;12.50;99.90;;;;;;5067101;27;20265;-72
2022/01/02 04:25:10;;;;;;;;;;;12.50;99.90;;;;;;5067573;27;20210;-71
2022/01/02 04:27:38;;;;;;;;;;;12.50;99.90;;;;;;5066944;27;20181;-72
2022/01/02 04:30:09;;;;;;;;;;;12.50;99.90;;;;;;5066885;27;20082;-72
2022/01/02 04:32:36;;;;;;;;;;;12.50;99.90;;;;;;5066589;27;20077;-72
2022/01/02 04:35:03;;;;;;;;;;;12.50;99.90;;;;;;5068245;27;20067;-72
2022/01/02 04:37:32;;;;;;;;;;;12.50;99.90;;;;;;5067270;27;20079;-72
2022/01/02 04:39:59;;;;;;;;;;;12.40;99.90;;;;;;5066756;27;20059;-72
2022/01/02 04:42:27;;;;;;;;;;;12.40;99.90;;;;;;5066955;27;21163;-71
2022/01/02 04:44:54;;;;;;;;;;;12.40;99.90;;;;;;5066979;27;20058;-72
2022/01/02 04:47:22;;;;;;;;;;;12.40;99.90;;;;;;5066935;27;20138;-71
2022/01/02 04:49:49;;;;;;;;;;;12.40;99.90;;;;;;5066673;27;20058;-72
2022/01/02 04:52:17;;;;;;;;;;;12.40;99.90;;;;;;5066490;27;21155;-72
2022/01/02 04:54:46;;;;;;;;;;;12.40;99.90;;;;;;5066727;27;20064;-72
2022/01/02 04:57:13;;;;;;;;;;;12.30;99.90;;;;;;5066796;27;20058;-72
2022/01/02 04:59:41;;;;;;;;;;;12.30;99.90;;;;;;5065300;27;20278;-71
2022/01/02 05:02:08;;;;;;;;;;;12.20;99.90;;;;;;5066232;27;20071;-72
2022/01/02 05:04:35;;;;;;;;;;;12.10;99.90;;;;;;5066834;27;20051;-72
2022/01/02 05:07:03;;;;;;;;;;;12.10;99.90;;;;;;5067428;27;20175;-72
2022/01/02 05:09:30;;;;;;;;;;;12.00;99.90;;;;;;5066274;27;20058;-71
2022/01/02 05:11:59;;;;;;;;;;;12.00;99.90;;;;;;5066675;27;20147;-70
2022/01/02 05:14:27;;;;;;;;;;;12.00;99.90;;;;;;5066532;27;21183;-72
2022/01/02 05:16:54;;;;;;;;;;;12.00;99.90;;;;;;5066926;28;21211;-72
2022/01/02 05:19:21;;;;;;;;;;;12.00;99.90;;;;;;5065758;27;21106;-72
2022/01/02 05:21:48;;;;;;;;;;;12.00;99.90;;;;;;5065964;27;20066;-71
2022/01/02 05:24:16;;;;;;;;;;;11.90;99.90;;;;;;5066457;28;20061;-72
2022/01/02 05:26:44;;;;;;;;;;;11.90;99.90;;;;;;5065906;27;20050;-71
2022/01/02 05:29:15;;;;;;;;;;;11.80;99.90;;;;;;5065913;27;20066;-72
2022/01/02 05:31:42;;;;;;;;;;;11.70;99.90;;;;;;5066339;28;20066;-71
2022/01/02 05:34:10;;;;;;;;;;;11.70;99.90;;;;;;5066379;28;20050;-72
2022/01/02 05:36:37;;;;;;;;;;;11.60;99.90;;;;;;5065810;28;20059;-72
2022/01/02 05:39:05;;;;;;;;;;;11.60;99.90;;;;;;5065748;28;20176;-72
2022/01/02 05:41:33;;;;;;;;;;;11.60;99.90;;;;;;5065918;28;20928;-71
2022/01/02 05:44:01;;;;;;;;;;;11.60;99.90;;;;;;5065956;28;20050;-72
2022/01/02 05:46:29;;;;;;;;;;;11.50;99.90;;;;;;5066467;28;20189;-71
2022/01/02 05:48:56;;;;;;;;;;;11.50;99.90;;;;;;5065885;28;20064;-72
2022/01/02 05:51:24;;;;;;;;;;;11.40;99.90;;;;;;5066110;28;20598;-72
2022/01/02 05:53:51;;;;;;;;;;;11.40;99.90;;;;;;5065346;28;20058;-72
2022/01/02 05:56:18;;;;;;;;;;;11.40;99.90;;;;;;5066471;28;20049;-71
2022/01/02 05:58:46;;;;;;;;;;;11.40;99.90;;;;;;5065573;28;20229;-72
2022/01/02 06:01:13;;;;;;;;;;;11.50;99.90;;;;;;5064828;27;20095;-71
2022/01/02 06:03:42;;;;;;;;;;;11.50;99.90;;;;;;5092433;27;20067;-72
2022/01/02 06:06:09;;;;;;;;;;;11.40;99.90;;;;;;5082335;27;20074;-72
2022/01/02 06:08:37;;;;;;;;;;;11.40;99.90;;;;;;5084827;27;20175;-72
2022/01/02 06:11:05;;;;;;;;;;;11.40;99.90;;;;;;5081208;27;20064;-71
2022/01/02 06:13:32;;;;;;;;;;;11.40;99.90;;;;;;5069260;27;20179;-71
2022/01/02 06:16:00;;;;;;;;;;;11.40;99.90;;;;;;5070400;27;21071;-71
2022/01/02 06:18:27;;;;;;;;;;;11.30;99.90;;;;;;5085227;27;20056;-72
2022/01/02 06:20:56;;;;;;;;;;;11.30;99.90;;;;;;5074752;27;20067;-72
2022/01/02 06:23:23;;;;;;;;;;;11.30;99.90;;;;;;5115017;22;20050;-66
2022/01/02 06:25:51;;;;;;;;;;;11.30;99.90;;;;;;5084166;27;20252;-67
2022/01/02 06:28:18;;;;;;;;;;;11.30;99.90;;;;;;5085765;27;20095;-67
2022/01/02 06:30:45;;;;;;;;;;;11.30;99.90;;;;;;5086149;27;20494;-66
2022/01/02 06:33:13;;;;;;;;;;;11.30;99.90;;;;;;5085085;27;20059;-67
2022/01/02 06:35:40;;;;;;;;;;;11.30;99.90;;;;;;5078185;27;20073;-67
2022/01/02 06:38:14;;;;;;;;;;;11.20;99.90;;;;;;5067814;27;20393;-68
2022/01/02 06:40:43;;;;;;;;;;;11.20;99.90;;;;;;5064213;27;21323;-67
2022/01/02 06:43:13;;;;;;;;;;;11.20;99.90;;;;;;5057390;27;20273;-68
2022/01/02 06:45:41;;;;;;;;;;;11.10;99.90;;;;;;5074688;27;20213;-68
2022/01/02 06:48:08;;;;;;;;;;;11.10;99.90;;;;;;5065782;28;20991;-68
2022/01/02 06:50:35;;;;;;;;;;;11.10;99.90;;;;;;5066684;28;20074;-68
2022/01/02 06:53:02;;;;;;;;;;;11.10;99.90;;;;;;5065570;28;20139;-68
2022/01/02 06:55:31;;;;;;;;;;;11.10;99.90;;;;;;5066725;28;20138;-68
2022/01/02 06:57:59;;;;;;;;;;;11.10;99.90;;;;;;5065443;28;20058;-69
2022/01/02 07:00:27;;;;;;;;;;;11.10;99.90;;;;;;5067002;28;20059;-68
2022/01/02 07:02:54;;;;;;;;;;;11.10;99.90;;;;;;5065310;28;20180;-68
2022/01/02 07:05:22;;;;;;;;;;;11.10;99.90;;;;;;5065049;28;20152;-67
2022/01/02 07:07:51;;;;;;;;;;;11.10;99.90;;;;;;5065881;28;20083;-67
2022/01/02 07:10:19;;;;;;;;;;;11.10;99.90;;;;;;5066064;28;20074;-68
2022/01/02 07:12:48;;;;;;;;;;;11.10;99.90;;;;;;5064695;28;20139;-67
2022/01/02 07:15:15;;;;;;;;;;;11.10;99.90;;;;;;5065030;28;20050;-68
2022/01/02 07:17:43;;;;;;;;;;;11.10;99.90;;;;;;5064859;28;20058;-67
2022/01/02 07:20:11;;;;;;;;;;;11.10;99.90;;;;;;5065456;28;21114;-68
2022/01/02 07:22:40;;;;;;;;;;;11.20;99.90;;;;;;5065211;28;20088;-68
2022/01/02 07:25:08;;;;;;;;;;;11.20;99.90;;;;;;5065551;28;20059;-68
2022/01/02 07:27:35;;;;;;;;;;;11.20;99.90;;;;;;5065463;28;21104;-68
2022/01/02 07:30:04;;;;;;;;;;;11.20;99.90;;;;;;5065146;28;20087;-68
2022/01/02 07:32:31;;;;;;;;;;;11.20;99.90;;;;;;5064580;28;21167;-69
2022/01/02 07:34:58;;;;;;;;;;;11.20;99.90;;;;;;5065365;28;20076;-70
2022/01/02 07:37:25;;;;;;;;;;;11.20;99.90;;;;;;5065603;28;20067;-67
2022/01/02 07:39:52;;;;;;;;;;;11.20;99.90;;;;;;5058659;28;20161;-68
2022/01/02 07:42:20;;;;;;;;;;;11.30;99.90;;;;;;5072648;27;20095;-71
2022/01/02 07:44:55;;;;;;;;;;;11.30;99.90;;;;;;5067103;28;21211;-78
2022/01/02 07:47:24;;;;;;;;;;;11.30;99.90;;;;;;5053879;27;20051;-70
2022/01/02 07:49:52;;;;;;;;;;;11.40;99.90;;;;;;5045316;27;20388;-68
2022/01/02 07:52:19;;;;;;;;;;;11.40;99.90;;;;;;5068172;27;20139;-67
2022/01/02 07:54:46;;;;;;;;;;;11.50;99.90;;;;;;5063783;28;20106;-69
2022/01/02 07:57:14;;;;;;;;;;;11.50;99.90;;;;;;5064427;28;21138;-69
2022/01/02 07:59:41;;;;;;;;;;;11.60;99.90;;;;;;5064259;28;20167;-70
2022/01/02 08:02:08;;;;;;;;;;;11.60;99.90;;;;;;5065381;28;21161;-71
2022/01/02 08:04:37;;;;;;;;;;;11.60;99.90;;;;;;5064307;28;20050;-70
2022/01/02 08:07:04;;;;;;;;;;;11.60;99.90;;;;;;5064696;28;20160;-74
2022/01/02 08:09:31;;;;;;;;;;;11.70;99.90;;;;;;5063865;28;20102;-77
2022/01/02 08:11:58;;;;;;;;;;;11.70;99.90;;;;;;5063312;28;20074;-67
2022/01/02 08:14:25;;;;;;;;;;;11.70;99.90;;;;;;5064326;28;20142;-67
2022/01/02 08:16:53;;;;;;;;;;;11.70;99.90;;;;;;5064449;28;20106;-67
2022/01/02 08:19:20;;;;;;;;;;;11.70;99.90;;;;;;5063425;28;21102;-67
2022/01/02 08:21:48;;;;;;;;;;;11.70;99.90;;;;;;5063558;28;20151;-68
2022/01/02 08:24:15;;;;;;;;;;;11.70;99.90;;;;;;5063471;28;21205;-68
2022/01/02 08:26:43;;;;;;;;;;;11.70;99.90;;;;;;5063399;28;20120;-68
2022/01/02 08:29:10;;;;;;;;;;;11.70;99.90;;;;;;5064224;28;21085;-67
2022/01/02 08:31:37;;;;;;;;;;;11.80;99.90;;;;;;5063859;28;21232;-68
2022/01/02 08:34:04;;;;;;;;;;;11.80;99.90;;;;;;5062061;28;20050;-67
2022/01/02 08:36:31;;;;;;;;;;;11.90;99.90;;;;;;5063711;28;21176;-68
2022/01/02 08:39:00;;;;;;;;;;;11.90;99.90;;;;;;5063025;28;20167;-67
2022/01/02 08:41:27;;;;;;;;;;;11.90;99.90;;;;;;5064271;28;20160;-68
2022/01/02 08:43:54;;;;;;;;;;;11.90;99.90;;;;;;5062677;28;20058;-68
2022/01/02 08:46:21;;;;;;;;;;;11.90;99.90;;;;;;5063916;28;20083;-68
2022/01/02 08:48:48;;;;;;;;;;;11.90;99.90;;;;;;5063120;28;20203;-67
2022/01/02 08:51:15;;;;;;;;;;;11.90;99.90;;;;;;5063495;28;20050;-68
2022/01/02 08:53:42;;;;;;;;;;;12.00;99.90;;;;;;5062933;28;21051;-68
2022/01/02 08:56:11;;;;;;;;;;;12.30;99.90;;;;;;5064093;28;20106;-69
2022/01/02 08:58:38;;;;;;;;;;;12.60;99.90;;;;;;5062683;28;20197;-68
2022/01/02 09:01:06;;;;;;;;;;;13.10;99.90;;;;;;5063806;28;20065;-69
2022/01/02 09:03:33;;;;;;;;;;;13.80;99.90;;;;;;5062102;28;20057;-68
2022/01/02 09:06:01;;;;;;;;;;;14.20;99.90;;;;;;5063078;28;20260;-68
2022/01/02 09:08:28;;;;;;;;;;;14.60;99.90;;;;;;5062907;28;21139;-69
2022/01/02 09:10:55;;;;;;;;;;;14.80;99.90;;;;;;5063381;28;20059;-68
2022/01/02 09:13:26;;;;;;;;;;;14.80;99.90;;;;;;5062913;28;21091;-68
2022/01/02 09:15:53;;;;;;;;;;;14.80;99.90;;;;;;5062874;28;20065;-69
2022/01/02 09:18:20;;;;;;;;;;;14.80;99.90;;;;;;5062357;28;20059;-69
2022/01/02 09:20:48;;;;;;;;;;;14.90;99.90;;;;;;5062644;28;20147;-69
2022/01/02 09:23:15;;;;;;;;;;;14.80;99.90;;;;;;5062646;28;20066;-69
2022/01/02 09:25:42;;;;;;;;;;;14.80;99.90;;;;;;5063079;28;20085;-69
2022/01/02 09:28:10;;;;;;;;;;;14.80;99.90;;;;;;5059198;28;20083;-69
2022/01/02 09:30:38;;;;;;;;;;;14.70;99.90;;;;;;5059132;27;20186;-69
2022/01/02 09:33:08;;;;;;;;;;;14.80;99.90;;;;;;5048696;28;21105;-69
2022/01/02 09:35:36;;;;;;;;;;;14.90;99.90;;;;;;5071472;28;20216;-70
2022/01/02 09:38:03;;;;;;;;;;;14.90;99.90;;;;;;5083448;28;21047;-69
2022/01/02 09:40:31;;;;;;;;;;;15.00;99.90;;;;;;5057676;28;21135;-69
2022/01/02 09:42:58;;;;;;;;;;;14.90;99.90;;;;;;5057183;28;20124;-69
2022/01/02 09:45:25;;;;;;;;;;;14.90;99.90;;;;;;5057463;28;20071;-69
2022/01/02 09:47:54;;;;;;;;;;;14.90;99.90;;;;;;5055624;27;20148;-69
2022/01/02 09:50:21;;;;;;;;;;;14.90;99.90;;;;;;5060111;27;20186;-71
2022/01/02 09:52:50;;;;;;;;;;;14.90;99.90;;;;;;5050827;27;21123;-71
2022/01/02 09:55:17;;;;;;;;;;;14.90;99.90;;;;;;5059880;27;20067;-69
2022/01/02 09:57:44;;;;;;;;;;;14.80;99.90;;;;;;5049813;27;20059;-69
2022/01/02 10:00:12;;;;;;;;;;;14.70;99.90;;;;;;5051091;27;21056;-69
2022/01/02 10:02:56;;;;;;;;;;;14.60;99.90;;;;;;5047086;27;20349;-69
2022/01/02 10:05:24;;;;;;;;;;;14.60;99.90;;;;;;5057492;27;20068;-69
2022/01/02 10:07:52;;;;;;;;;;;14.60;99.90;;;;;;5061731;27;20194;-69
2022/01/02 10:10:20;;;;;;;;;;;14.60;99.90;;;;;;5051539;27;20068;-69
2022/01/02 10:12:47;;;;;;;;;;;14.60;99.90;;;;;;5073531;27;20067;-69
2022/01/02 10:15:16;;;;;;;;;;;14.60;99.90;;;;;;5066666;28;20066;-69
2022/01/02 10:17:58;;;;;;;;;;;14.40;99.90;;;;;;5066333;28;21199;-69
2022/01/02 10:20:26;;;;;;;;;;;14.50;99.90;;;;;;5066062;28;20167;-69
2022/01/02 10:23:00;;;;;;;;;;;14.60;99.90;;;;;;5066435;28;20067;-69
2022/01/02 10:25:41;;;;;;;;;;;14.70;99.90;;;;;;5065985;28;20086;-69
2022/01/02 10:28:22;;;;;;;;;;;14.80;99.90;;;;;;5066831;28;20189;-69
2022/01/02 10:30:50;;;;;;;;;;;14.70;99.90;;;;;;5065583;28;21211;-69
2022/01/02 10:33:18;;;;;;;;;;;14.70;99.90;;;;;;5065940;28;20059;-69
2022/01/02 10:35:45;;;;;;;;;;;14.70;99.90;;;;;;5066168;28;21212;-69
2022/01/02 10:38:15;;;;;;;;;;;14.70;99.90;;;;;;5066497;28;20088;-69
2022/01/02 10:40:43;;;;;;;;;;;14.70;99.90;;;;;;5067162;28;20137;-69
2022/01/02 10:43:12;;;;;;;;;;;14.70;99.90;;;;;;5066759;28;20075;-69
2022/01/02 10:45:40;;;;;;;;;;;14.70;99.90;;;;;;5066578;28;20177;-72
2022/01/02 10:48:09;;;;;;;;;;;14.60;99.90;;;;;;5065791;28;20139;-69
2022/01/02 10:50:38;;;;;;;;;;;16.60;99.90;;;;;;5073868;27;20082;-70
2022/01/02 10:53:12;;;;;;;;;;;18.20;99.90;;;;;;5057110;27;20082;-69
2022/01/02 10:55:40;;;;;;;;;;;19.10;99.90;;;;;;5049536;27;20104;-73
2022/01/02 10:58:08;;;;;;;;;;;19.40;99.90;;;;;;5048104;27;20076;-70
2022/01/02 11:00:35;;;;;;;;;;;20.30;99.90;;;;;;5055498;27;20141;-70
2022/01/02 11:03:04;;;;;;;;;;;21.20;99.90;;;;;;5049333;27;20051;-70
2022/01/02 11:05:31;;;;;;;;;;;20.50;99.90;;;;;;5052714;27;20168;-70
2022/01/02 11:08:01;;;;;;;;;;;21.00;99.90;;;;;;5049606;27;20076;-70
2022/01/02 11:10:30;;;;;;;;;;;21.10;99.90;;;;;;5051789;27;20067;-70
2022/01/02 11:12:58;;;;;;;;;;;21.50;99.90;;;;;;5048173;27;20140;-70
2022/01/02 11:15:26;;;;;;;;;;;21.70;99.90;;;;;;5046708;27;20060;-70
2022/01/02 11:17:54;;;;;;;;;;;20.70;99.90;;;;;;5054485;28;20074;-69
2022/01/02 11:20:22;;;;;;;;;;;20.60;99.90;;;;;;5052616;27;20068;-70
2022/01/02 11:22:52;;;;;;;;;;;18.20;99.90;;;;;;5048957;27;20094;-70
2022/01/02 11:25:24;;;;;;;;;;;17.20;99.90;;;;;;5049157;27;20083;-70
2022/01/02 11:27:53;;;;;;;;;;;19.20;99.90;;;;;;5062467;27;20075;-69
2022/01/02 11:30:35;;;;;;;;;;;18.50;99.90;;;;;;5077980;27;20056;-69
2022/01/02 11:33:03;;;;;;;;;;;19.10;99.90;;;;;;5085351;27;20066;-69
2022/01/02 11:35:32;;;;;;;;;;;17.30;99.90;;;;;;5085351;27;20072;-69
2022/01/02 11:38:01;;;;;;;;;;;16.00;99.90;;;;;;5085754;27;20070;-70
2022/01/02 11:40:47;;;;;;;;;;;15.10;99.90;;;;;;5085600;27;20276;-69
2022/01/02 11:43:33;;;;;;;;;;;14.60;99.90;;;;;;5085061;27;20062;-69
2022/01/02 11:46:14;;;;;;;;;;;14.20;99.90;;;;;;5085726;27;20158;-70
2022/01/02 11:48:42;;;;;;;;;;;14.00;99.90;;;;;;5085580;27;20069;-69
2022/01/02 11:51:09;;;;;;;;;;;13.80;99.90;;;;;;5086377;27;20059;-69
2022/01/02 11:53:36;;;;;;;;;;;13.70;99.90;;;;;;5084798;27;20066;-69
2022/01/02 11:56:05;;;;;;;;;;;13.60;99.90;;;;;;5073854;27;20169;-74
2022/01/02 11:58:50;;;;;;;;;;;13.60;99.90;;;;;;5067707;27;20066;-69
2022/01/02 12:01:36;;;;;;;;;;;13.60;99.90;;;;;;5053881;27;21130;-70
2022/01/02 12:04:03;;;;;;;;;;;13.50;99.90;;;;;;5064731;27;20074;-71
2022/01/02 12:06:35;;;;;;;;;;;13.40;99.90;;;;;;5049820;27;20199;-70
2022/01/02 12:09:04;;;;;;;;;;;13.40;99.90;;;;;;5071779;27;21072;-71
2022/01/02 12:11:43;;;;;;;;;;;13.40;99.90;;;;;;5066130;27;20076;-70
2022/01/02 12:14:11;;;;;;;;;;;13.40;99.90;;;;;;5080423;27;21041;-70
2022/01/02 12:16:39;;;;;;;;;;;13.40;99.90;;;;;;5086790;27;20059;-70
2022/01/02 12:19:06;;;;;;;;;;;14.20;99.90;;;;;;5086096;27;20087;-75
2022/01/02 12:21:33;;;;;;;;;;;16.10;99.90;;;;;;5078863;27;20068;-68
2022/01/02 12:24:02;;;;;;;;;;;18.70;99.90;;;;;;5059907;27;20068;-67
2022/01/02 12:26:31;;;;;;;;;;;20.20;99.90;;;;;;5047240;27;21229;-68
2022/01/02 12:29:02;;;;;;;;;;;17.60;99.90;;;;;;5047878;27;20067;-68
2022/01/02 12:31:30;;;;;;;;;;;16.00;99.90;;;;;;5072614;27;20072;-68
2022/01/02 12:34:04;;;;;;;;;;;14.80;99.90;;;;;;5085678;27;20138;-69
2022/01/02 12:36:31;;;;;;;;;;;14.30;99.90;;;;;;5086555;27;20565;-68
2022/01/02 12:38:59;;;;;;;;;;;14.00;99.90;;;;;;5085927;27;20051;-69
2022/01/02 12:41:27;;;;;;;;;;;13.80;99.90;;;;;;5086571;27;20182;-69
2022/01/02 12:43:55;;;;;;;;;;;13.70;99.90;;;;;;5077723;27;20110;-70
2022/01/02 12:46:38;;;;;;;;;;;13.60;99.90;;;;;;5082466;27;21136;-71
2022/01/02 12:49:06;;;;;;;;;;;13.50;99.90;;;;;;5085868;27;20150;-70
2022/01/02 12:51:34;;;;;;;;;;;13.40;99.90;;;;;;5086128;27;20067;-70
2022/01/02 12:54:02;;;;;;;;;;;13.40;99.90;;;;;;5084262;27;20061;-70
2022/01/02 12:56:36;;;;;;;;;;;13.30;99.90;;;;;;5085213;27;20059;-72
2022/01/02 12:59:17;;;;;;;;;;;13.30;99.90;;;;;;5059653;27;20204;-71
2022/01/02 13:01:59;;;;;;;;;;;13.30;99.90;;;;;;5067296;27;20078;-71
2022/01/02 13:04:29;;;;;;;;;;;13.30;99.90;;;;;;5059370;28;21091;-69
2022/01/02 13:06:57;;;;;;;;;;;13.40;99.90;;;;;;5064028;28;21134;-73
2022/01/02 13:09:29;;;;;;;;;;;13.40;99.90;;;;;;5065294;28;20140;-72
2022/01/02 13:11:57;;;;;;;;;;;13.50;99.90;;;;;;5061912;28;20068;-69
2022/01/02 13:14:45;;;;;;;;;;;13.80;99.90;;;;;;5075406;27;21181;-68
2022/01/02 13:17:14;;;;;;;;;;;14.60;99.90;;;;;;5073713;27;20151;-70
2022/01/02 13:19:47;;;;;;;;;;;14.10;99.90;;;;;;5084945;27;20067;-70
2022/01/02 13:22:21;;;;;;;;;;;14.40;99.90;;;;;;5085510;27;20150;-70
2022/01/02 13:24:50;;;;;;;;;;;14.00;99.90;;;;;;5085093;27;20059;-70
2022/01/02 13:27:17;;;;;;;;;;;13.80;99.90;;;;;;5085890;27;20123;-69
2022/01/02 13:29:54;;;;;;;;;;;13.60;99.90;;;;;;5085209;27;20066;-70
2022/01/02 13:32:24;;;;;;;;;;;13.60;99.90;;;;;;5084566;27;21596;-70
2022/01/02 13:35:04;;;;;;;;;;;13.40;99.90;;;;;;5084967;28;20075;-70
2022/01/02 13:37:35;;;;;;;;;;;13.40;99.90;;;;;;5085798;28;20066;-70
2022/01/02 13:40:03;;;;;;;;;;;13.40;99.90;;;;;;5085195;27;20085;-70
2022/01/02 13:42:39;;;;;;;;;;;13.40;99.90;;;;;;5075478;28;20299;-70
2022/01/02 13:45:14;;;;;;;;;;;13.30;99.90;;;;;;5076936;28;20095;-70
2022/01/02 13:47:42;;;;;;;;;;;13.30;99.90;;;;;;5085361;28;20153;-68
2022/01/02 13:50:11;;;;;;;;;;;13.30;99.90;;;;;;5085962;28;20147;-70
2022/01/02 13:52:55;;;;;;;;;;;13.30;99.90;;;;;;5073239;28;20076;-68
2022/01/02 13:55:25;;;;;;;;;;;13.30;99.90;;;;;;5069109;28;20076;-70
2022/01/02 13:57:52;;;;;;;;;;;13.40;99.90;;;;;;5044907;28;21289;-69
2022/01/02 14:00:20;;;;;;;;;;;15.10;99.90;;;;;;5044788;28;20068;-69
2022/01/02 14:02:52;;;;;;;;;;;14.60;99.90;;;;;;5064920;28;20076;-68
2022/01/02 14:05:20;;;;;;;;;;;14.20;99.90;;;;;;5081424;28;20067;-68
2022/01/02 14:07:47;;;;;;;;;;;13.90;99.90;;;;;;5084288;28;21123;-70
2022/01/02 14:10:16;;;;;;;;;;;13.70;99.90;;;;;;5084811;28;20439;-70
2022/01/02 14:12:43;;;;;;;;;;;13.60;99.90;;;;;;5084845;28;20074;-69
2022/01/02 14:15:18;;;;;;;;;;;13.50;99.90;;;;;;5084962;28;20089;-70
2022/01/02 14:17:46;;;;;;;;;;;13.40;99.90;;;;;;5084875;28;20059;-70
2022/01/02 14:20:15;;;;;;;;;;;13.40;99.90;;;;;;5084996;28;20074;-70
2022/01/02 14:22:45;;;;;;;;;;;13.40;99.90;;;;;;5084942;28;20163;-69
2022/01/02 14:25:14;;;;;;;;;;;13.40;99.90;;;;;;5084583;28;21206;-69
2022/01/02 14:27:45;;;;;;;;;;;13.40;99.90;;;;;;5088613;28;20159;-67
2022/01/02 14:30:13;;;;;;;;;;;13.40;99.90;;;;;;5085046;28;20356;-68
2022/01/02 14:32:40;;;;;;;;;;;13.30;99.90;;;;;;5086126;27;20059;-68